Time;durP1;ratioP1;P1;durP2;ratioP2;P2;SDS_P1;SDS_P2;PMS_P1;PMS_P2;Temp;Humidity;BMP_temperature;BMP_pressure;BME280_temperature;BME280_humidity;BME280_pressure;Samples;Min_cycle;Max_cycle;Signal;HPM_P1;HPM_P2
2021/11/09 00:00:50;;;;;;;3.92;3.53;;;13.50;81.10;;;;;;4987976;28;20045;-78
2021/11/09 00:03:16;;;;;;;3.20;2.90;;;13.40;80.90;;;;;;4988824;28;20041;-78
2021/11/09 00:05:58;;;;;;;3.78;3.38;;;13.40;80.90;;;;;;4988610;28;20509;-78
2021/11/09 00:08:31;;;;;;;3.53;3.20;;;13.40;80.90;;;;;;4988377;28;20042;-79
2021/11/09 00:10:58;;;;;;;3.22;2.92;;;13.40;80.90;;;;;;4989435;28;20031;-79
2021/11/09 00:13:24;;;;;;;4.00;3.60;;;13.40;80.90;;;;;;4987896;28;20038;-78
2021/11/09 00:15:52;;;;;;;3.08;2.78;;;13.30;80.70;;;;;;4989381;28;20038;-77
2021/11/09 00:18:18;;;;;;;3.25;2.95;;;13.30;80.70;;;;;;4987362;28;20046;-78
2021/11/09 00:20:44;;;;;;;3.85;2.90;;;13.30;80.70;;;;;;4988778;28;20134;-78
2021/11/09 00:23:11;;;;;;;3.78;3.10;;;13.20;80.60;;;;;;4987669;28;20077;-78
2021/11/09 00:25:38;;;;;;;3.15;2.85;;;13.20;80.60;;;;;;4988585;28;20073;-78
2021/11/09 00:28:09;;;;;;;3.38;2.80;;;13.20;80.70;;;;;;4988457;28;20073;-78
2021/11/09 00:30:35;;;;;;;3.22;2.85;;;13.20;80.70;;;;;;5003391;28;20080;-79
2021/11/09 00:33:02;;;;;;;3.92;3.05;;;13.10;80.60;;;;;;4988130;28;20113;-79
2021/11/09 00:35:30;;;;;;;2.85;2.55;;;13.10;80.60;;;;;;4987090;28;20206;-79
2021/11/09 00:37:58;;;;;;;3.85;2.83;;;13.00;80.50;;;;;;5002688;28;20410;-79
2021/11/09 00:40:27;;;;;;;3.95;2.63;;;13.00;80.50;;;;;;5002932;28;20022;-79
2021/11/09 00:42:53;;;;;;;2.75;2.55;;;13.00;80.60;;;;;;4987041;28;20042;-79
2021/11/09 00:45:20;;;;;;;3.20;2.90;;;12.90;80.40;;;;;;4988933;28;20445;-79
2021/11/09 00:47:46;;;;;;;3.30;2.80;;;12.90;80.50;;;;;;4986509;28;20089;-78
2021/11/09 00:50:15;;;;;;;3.25;2.92;;;12.90;80.50;;;;;;5002795;28;20368;-78
2021/11/09 00:52:42;;;;;;;3.50;3.15;;;12.80;80.40;;;;;;4986861;28;20026;-79
2021/11/09 00:55:09;;;;;;;3.17;2.67;;;12.80;80.50;;;;;;4987509;28;20117;-78
2021/11/09 00:57:35;;;;;;;2.75;2.55;;;12.80;80.50;;;;;;4987208;28;20060;-78
2021/11/09 01:00:03;;;;;;;3.40;3.10;;;12.70;80.40;;;;;;4986774;28;20031;-79
2021/11/09 01:02:29;;;;;;;3.75;2.72;;;12.70;80.50;;;;;;5003091;28;20046;-79
2021/11/09 01:04:56;;;;;;;3.10;2.60;;;12.70;80.50;;;;;;4987517;28;20104;-79
2021/11/09 01:07:22;;;;;;;2.85;2.47;;;12.70;80.70;;;;;;4988004;28;20131;-79
2021/11/09 01:09:48;;;;;;;3.30;2.58;;;12.60;80.50;;;;;;4986246;28;20484;-79
2021/11/09 01:12:14;;;;;;;3.92;3.13;;;12.60;80.50;;;;;;4986660;28;20104;-79
2021/11/09 01:14:41;;;;;;;3.55;2.53;;;12.60;80.60;;;;;;4987239;28;20033;-79
2021/11/09 01:17:07;;;;;;;3.70;2.85;;;12.60;80.70;;;;;;4987526;28;20046;-78
2021/11/09 01:19:34;;;;;;;3.17;2.60;;;12.50;80.50;;;;;;4987068;28;20026;-79
2021/11/09 01:22:01;;;;;;;2.75;2.53;;;12.60;80.70;;;;;;4987801;28;20398;-79
2021/11/09 01:24:28;;;;;;;2.72;2.47;;;12.50;80.60;;;;;;4987777;28;20030;-79
2021/11/09 01:26:54;;;;;;;3.40;2.80;;;12.50;81.10;;;;;;4987367;28;20095;-78
2021/11/09 01:29:20;;;;;;;2.67;2.15;;;12.50;80.60;;;;;;4987346;28;20030;-78
2021/11/09 01:31:47;;;;;;;2.40;2.20;;;12.40;80.40;;;;;;4986109;28;20629;-78
2021/11/09 01:34:16;;;;;;;3.38;2.53;;;12.40;80.50;;;;;;4987433;28;20039;-78
2021/11/09 01:36:42;;;;;;;2.55;2.35;;;12.40;80.50;;;;;;4985891;28;20490;-79
2021/11/09 01:39:09;;;;;;;5.32;3.25;;;12.30;80.40;;;;;;4986293;28;20501;-77
2021/11/09 01:41:35;;;;;;;2.72;2.20;;;12.30;80.50;;;;;;4987210;28;20844;-79
2021/11/09 01:44:02;;;;;;;3.08;2.50;;;12.30;80.50;;;;;;4986827;28;20416;-79
2021/11/09 01:46:28;;;;;;;3.10;2.60;;;12.30;80.60;;;;;;4987008;28;20035;-79
2021/11/09 01:48:56;;;;;;;2.80;2.08;;;12.30;80.70;;;;;;4986894;28;20042;-79
2021/11/09 01:51:23;;;;;;;3.70;2.50;;;12.30;80.80;;;;;;4986474;28;20034;-79
2021/11/09 01:53:53;;;;;;;2.50;2.25;;;12.30;80.80;;;;;;4987115;28;20077;-79
2021/11/09 01:56:22;;;;;;;2.42;2.17;;;12.30;80.80;;;;;;4985505;28;20038;-79
2021/11/09 01:58:49;;;;;;;2.60;2.40;;;12.20;80.70;;;;;;4987077;28;20030;-79
2021/11/09 02:01:17;;;;;;;2.30;2.00;;;12.20;80.70;;;;;;5001615;28;20038;-80
2021/11/09 02:03:47;;;;;;;2.30;2.08;;;12.20;80.70;;;;;;4986317;28;20032;-80
2021/11/09 02:06:14;;;;;;;2.92;2.10;;;12.20;80.80;;;;;;4986045;28;20505;-79
2021/11/09 02:08:41;;;;;;;2.20;2.00;;;12.20;80.80;;;;;;4986773;28;20035;-80
2021/11/09 02:11:08;;;;;;;3.08;2.30;;;12.10;81.10;;;;;;4986992;28;20030;-80
2021/11/09 02:13:34;;;;;;;2.78;2.13;;;12.10;80.60;;;;;;4985845;28;20459;-79
2021/11/09 02:16:00;;;;;;;1.58;1.48;;;12.10;80.60;;;;;;4987203;28;20031;-80
2021/11/09 02:18:27;;;;;;;2.17;1.85;;;12.10;80.70;;;;;;4985164;28;20038;-80
2021/11/09 02:20:59;;;;;;;2.50;1.83;;;12.10;80.70;;;;;;4985360;28;20471;-80
2021/11/09 02:23:27;;;;;;;3.73;2.47;;;12.10;80.80;;;;;;4986923;28;20038;-81
2021/11/09 02:25:54;;;;;;;2.72;2.20;;;12.00;80.60;;;;;;4987120;28;20033;-80
2021/11/09 02:28:20;;;;;;;2.28;1.98;;;12.00;80.70;;;;;;4985589;28;20482;-79
2021/11/09 02:30:47;;;;;;;3.80;2.25;;;12.00;80.70;;;;;;4986875;28;20437;-79
2021/11/09 02:33:14;;;;;;;2.20;2.00;;;12.00;80.80;;;;;;4988617;28;20490;-79
2021/11/09 02:35:40;;;;;;;2.67;2.00;;;12.00;80.80;;;;;;4986428;28;20426;-79
2021/11/09 02:38:06;;;;;;;2.33;2.13;;;12.00;80.90;;;;;;4986628;28;20046;-79
2021/11/09 02:40:34;;;;;;;3.33;2.03;;;11.90;80.80;;;;;;4987714;28;20026;-78
2021/11/09 02:43:05;;;;;;;2.47;2.28;;;12.00;81.00;;;;;;4986761;28;20038;-78
2021/11/09 02:45:40;;;;;;;2.95;2.55;;;12.00;81.10;;;;;;4988285;28;20112;-78
2021/11/09 02:48:23;;;;;;;2.22;1.85;;;12.00;81.10;;;;;;4991838;28;20085;-78
2021/11/09 02:51:04;;;;;;;;;;;11.90;80.90;;;;;;4991540;28;20050;-78
2021/11/09 02:56:23;;;;;;;3.97;2.58;;;11.90;80.80;;;;;;4991256;28;20023;-80
2021/11/09 02:58:48;;;;;;;2.10;1.90;;;11.90;80.80;;;;;;4990393;28;20544;-78
2021/11/09 03:01:42;;;;;;;2.67;2.00;;;11.90;80.90;;;;;;4991440;28;20370;-78
2021/11/09 03:06:37;;;;;;;3.42;2.13;;;11.90;81.00;;;;;;4991152;28;20073;-78
2021/11/09 03:09:15;;;;;;;3.00;2.10;;;11.90;81.00;;;;;;4991599;28;20089;-78
2021/11/09 03:11:53;;;;;;;1.80;1.70;;;11.90;81.00;;;;;;4990948;28;20767;-78
2021/11/09 03:14:20;;;;;;;2.72;1.90;;;11.90;81.00;;;;;;4991099;28;20046;-78
2021/11/09 03:16:46;;;;;;;1.88;1.50;;;11.90;81.10;;;;;;4989740;28;20334;-78
2021/11/09 03:19:32;;;;;;;1.83;1.40;;;11.90;81.10;;;;;;4991047;28;20030;-78
2021/11/09 03:46:40;;;;;;;2.35;1.75;;;11.90;81.30;;;;;;4994464;28;20045;-79
2021/11/09 03:49:07;;;;;;;3.38;1.67;;;11.90;81.30;;;;;;4993806;28;20046;-81
2021/11/09 03:51:34;;;;;;;2.00;1.90;;;11.90;81.40;;;;;;4992797;28;20026;-80
2021/11/09 03:54:03;;;;;;;2.17;1.50;;;11.90;81.40;;;;;;4993966;28;20037;-81
2021/11/09 03:56:40;;;;;;;2.20;1.88;;;11.90;81.40;;;;;;4993676;28;20120;-79
2021/11/09 03:59:12;;;;;;;1.83;1.50;;;11.90;81.40;;;;;;4993630;28;20482;-78
2021/11/09 04:02:18;;;;;;;2.05;1.55;;;11.90;81.40;;;;;;4994009;28;20045;-78
2021/11/09 04:07:06;;;;;;;1.75;1.60;;;11.90;81.30;;;;;;4994015;28;20093;-78
2021/11/09 04:09:51;;;;;;;2.30;2.08;;;11.90;81.30;;;;;;5008851;28;20486;-78
2021/11/09 04:14:50;;;;;;;2.10;1.50;;;11.90;81.20;;;;;;5008183;28;20027;-78
2021/11/09 04:27:58;;;;;;;2.35;1.38;;;11.90;81.20;;;;;;4991867;28;20042;-78
2021/11/09 05:02:49;;;;;;;1.85;1.40;;;11.50;80.50;;;;;;5009855;28;20030;-78
2021/11/09 05:10:58;;;;;;;1.60;1.27;;;11.40;80.30;;;;;;5007557;28;20034;-79
2021/11/09 05:13:24;;;;;;;1.58;1.27;;;11.40;80.40;;;;;;4992887;28;20479;-79
2021/11/09 05:15:52;;;;;;;1.35;1.25;;;11.40;80.40;;;;;;4992402;28;20117;-79
2021/11/09 05:18:18;;;;;;;1.50;1.40;;;11.40;80.50;;;;;;4992731;28;20046;-80
2021/11/09 05:20:44;;;;;;;2.13;1.90;;;11.30;80.30;;;;;;4992519;28;20044;-79
2021/11/09 05:23:10;;;;;;;1.30;1.20;;;11.30;80.40;;;;;;4992377;28;20510;-79
2021/11/09 05:25:36;;;;;;;1.58;1.48;;;11.30;80.40;;;;;;4990998;28;20037;-80
2021/11/09 05:28:04;;;;;;;1.33;1.23;;;11.30;80.50;;;;;;4992296;28;20037;-78
2021/11/09 05:30:31;;;;;;;1.55;1.20;;;11.30;80.50;;;;;;4991987;28;20085;-78
2021/11/09 05:32:59;;;;;;;1.17;1.08;;;11.20;80.30;;;;;;4990912;28;20037;-78
2021/11/09 05:35:27;;;;;;;2.00;1.63;;;11.20;80.40;;;;;;4992138;28;20430;-78
2021/11/09 05:37:54;;;;;;;2.67;1.27;;;11.20;80.40;;;;;;4992290;28;20101;-78
2021/11/09 05:40:27;;;;;;;1.50;1.40;;;11.20;80.40;;;;;;4992005;28;20026;-78
2021/11/09 05:42:53;;;;;;;1.45;1.30;;;11.20;80.50;;;;;;4992324;28;20030;-78
2021/11/09 05:45:19;;;;;;;1.67;1.45;;;11.20;80.50;;;;;;4991839;28;20555;-77
2021/11/09 05:47:45;;;;;;;2.65;1.33;;;11.10;80.40;;;;;;4985299;28;20034;-79
2021/11/09 05:50:11;;;;;;;2.95;2.20;;;11.10;80.50;;;;;;4969068;28;20054;-80
2021/11/09 05:52:37;;;;;;;1.40;1.30;;;11.10;80.50;;;;;;4969055;28;20513;-79
2021/11/09 05:55:04;;;;;;;1.73;1.50;;;11.10;80.60;;;;;;4969467;28;20038;-79
2021/11/09 05:57:30;;;;;;;1.70;1.50;;;11.10;80.60;;;;;;4970929;28;20047;-79
2021/11/09 05:59:56;;;;;;;2.42;1.50;;;11.10;80.70;;;;;;4986790;28;20030;-79
2021/11/09 06:02:24;;;;;;;2.22;1.90;;;11.10;80.70;;;;;;4986119;28;20117;-78
2021/11/09 06:04:52;;;;;;;2.63;1.30;;;11.10;80.80;;;;;;4986933;28;20106;-78
2021/11/09 06:07:19;;;;;;;1.73;1.63;;;11.10;80.80;;;;;;4987506;28;20514;-80
2021/11/09 06:09:45;;;;;;;1.65;1.50;;;11.10;81.30;;;;;;4985521;28;20255;-79
2021/11/09 06:12:11;;;;;;;1.35;1.20;;;11.10;80.90;;;;;;4986943;28;20034;-79
2021/11/09 06:14:37;;;;;;;2.58;2.10;;;11.10;81.00;;;;;;4988205;28;20026;-79
2021/11/09 06:17:03;;;;;;;2.67;1.42;;;11.10;81.00;;;;;;5002298;28;20255;-79
2021/11/09 06:19:29;;;;;;;1.88;1.27;;;11.10;81.10;;;;;;4986676;28;20389;-79
2021/11/09 06:21:56;;;;;;;1.50;1.33;;;11.10;81.10;;;;;;4985355;28;20478;-79
2021/11/09 06:24:23;;;;;;;1.55;1.35;;;11.20;81.30;;;;;;4985217;28;20038;-81
2021/11/09 06:26:50;;;;;;;1.70;1.60;;;11.20;81.40;;;;;;4987729;28;20417;-81
2021/11/09 06:29:16;;;;;;;2.40;1.33;;;11.20;81.40;;;;;;4985871;28;20029;-80
2021/11/09 06:31:42;;;;;;;2.40;1.80;;;11.20;81.40;;;;;;4987253;28;20135;-79
2021/11/09 06:34:09;;;;;;;1.30;1.20;;;11.20;81.50;;;;;;4986219;28;20034;-79
2021/11/09 06:36:35;;;;;;;2.17;1.23;;;11.20;81.50;;;;;;5001943;28;20085;-80
2021/11/09 06:39:01;;;;;;;1.65;1.38;;;11.20;81.50;;;;;;4984778;28;20037;-79
2021/11/09 06:41:28;;;;;;;2.20;1.23;;;11.20;81.50;;;;;;4987000;28;20038;-79
2021/11/09 06:43:54;;;;;;;1.55;1.45;;;11.30;81.60;;;;;;4985183;28;20558;-81
2021/11/09 06:46:20;;;;;;;2.75;1.50;;;11.30;81.60;;;;;;5002431;28;20065;-80
2021/11/09 06:48:47;;;;;;;1.63;1.52;;;11.30;81.60;;;;;;4986338;28;20030;-78
2021/11/09 06:51:14;;;;;;;1.52;1.42;;;11.30;81.60;;;;;;4986201;28;20036;-81
2021/11/09 06:53:42;;;;;;;1.45;1.20;;;11.30;81.60;;;;;;4986417;28;20367;-80
2021/11/09 06:56:08;;;;;;;2.00;1.40;;;11.30;81.60;;;;;;4986407;28;20434;-79
2021/11/09 06:58:35;;;;;;;1.50;1.15;;;11.30;81.60;;;;;;4988434;28;20663;-79
2021/11/09 07:01:02;;;;;;;2.20;1.50;;;11.40;81.70;;;;;;4990252;28;20022;-78
2021/11/09 07:03:30;;;;;;;1.33;1.20;;;11.30;81.60;;;;;;4990504;28;20125;-80
2021/11/09 07:05:56;;;;;;;1.38;1.20;;;11.40;81.70;;;;;;4989102;28;20037;-78
2021/11/09 07:08:22;;;;;;;1.67;1.40;;;11.40;81.70;;;;;;4989941;28;20414;-79
2021/11/09 07:10:48;;;;;;;1.25;1.15;;;11.40;81.70;;;;;;4988986;28;20088;-80
2021/11/09 07:13:14;;;;;;;2.20;1.50;;;11.40;82.20;;;;;;4989003;28;20026;-80
2021/11/09 07:15:40;;;;;;;2.40;1.40;;;11.40;81.70;;;;;;4984067;28;20045;-78
2021/11/09 07:18:08;;;;;;;1.20;1.10;;;11.40;81.70;;;;;;4985346;28;20042;-81
2021/11/09 07:20:36;;;;;;;1.98;1.40;;;11.40;81.70;;;;;;4989811;28;20058;-82
2021/11/09 07:23:03;;;;;;;1.40;1.23;;;11.50;81.90;;;;;;4993543;28;20040;-80
2021/11/09 07:25:31;;;;;;;1.60;1.50;;;11.50;81.80;;;;;;4989883;28;20026;-79
2021/11/09 07:27:58;;;;;;;2.58;2.15;;;11.50;81.80;;;;;;4989362;28;20096;-81
2021/11/09 07:30:31;;;;;;;1.65;1.08;;;11.50;81.80;;;;;;4988825;28;20030;-81
2021/11/09 07:32:57;;;;;;;1.52;1.20;;;11.60;82.00;;;;;;4988182;28;20117;-80
2021/11/09 07:35:23;;;;;;;1.52;1.40;;;11.60;81.90;;;;;;4988771;28;20117;-79
2021/11/09 07:37:49;;;;;;;1.40;1.30;;;11.60;81.90;;;;;;4989584;28;20502;-81
2021/11/09 07:40:16;;;;;;;1.70;1.30;;;11.60;81.90;;;;;;4989852;28;20453;-79
2021/11/09 07:42:47;;;;;;;1.98;1.30;;;11.60;81.80;;;;;;4989276;28;20035;-80
2021/11/09 07:45:18;;;;;;;1.27;1.17;;;11.70;82.00;;;;;;4988249;28;20505;-79
2021/11/09 07:47:45;;;;;;;1.35;1.17;;;11.70;81.90;;;;;;4988859;28;20034;-80
2021/11/09 07:50:11;;;;;;;2.30;1.52;;;11.70;81.80;;;;;;4988889;28;20073;-82
2021/11/09 07:52:38;;;;;;;1.10;1.00;;;11.70;81.80;;;;;;4987517;28;20042;-82
2021/11/09 07:55:06;;;;;;;1.85;1.20;;;11.70;81.80;;;;;;4988942;28;20031;-80
2021/11/09 07:57:43;;;;;;;1.38;1.27;;;11.80;81.90;;;;;;4989045;28;20034;-81
2021/11/09 08:00:21;;;;;;;1.73;1.10;;;11.80;81.80;;;;;;4988765;28;20030;-82
2021/11/09 08:05:44;;;;;;;1.60;1.40;;;11.80;81.80;;;;;;4989223;28;20030;-80
2021/11/09 08:08:16;;;;;;;1.50;1.30;;;11.80;81.70;;;;;;4988522;28;20034;-81
2021/11/09 08:10:43;;;;;;;1.30;1.20;;;11.90;81.90;;;;;;5004667;28;20027;-83
2021/11/09 08:13:09;;;;;;;1.38;1.27;;;11.90;81.90;;;;;;4989044;28;20132;-83
2021/11/09 08:15:36;;;;;;;1.52;1.10;;;11.90;81.80;;;;;;4988869;28;20062;-83
2021/11/09 08:18:03;;;;;;;1.15;1.00;;;12.00;82.00;;;;;;4988972;28;20669;-81
2021/11/09 08:20:29;;;;;;;1.23;1.13;;;12.00;81.90;;;;;;4988894;28;20081;-82
2021/11/09 08:22:55;;;;;;;2.22;1.10;;;12.00;81.90;;;;;;4989229;28;20045;-84
2021/11/09 08:25:22;;;;;;;1.20;1.10;;;12.10;82.00;;;;;;4988581;28;20026;-80
2021/11/09 08:27:48;;;;;;;1.40;1.10;;;12.10;82.00;;;;;;4988857;28;20034;-79
2021/11/09 08:30:14;;;;;;;0.80;0.80;;;12.20;82.10;;;;;;4988247;28;20117;-80
2021/11/09 08:32:42;;;;;;;1.35;1.10;;;12.20;82.00;;;;;;4988729;28;20104;-80
2021/11/09 08:35:11;;;;;;;0.95;0.90;;;12.30;82.10;;;;;;4988306;28;20121;-82
2021/11/09 08:37:39;;;;;;;1.23;1.13;;;12.30;82.00;;;;;;4988577;28;20057;-80
2021/11/09 08:40:12;;;;;;;1.40;0.90;;;12.40;82.10;;;;;;4988806;28;20418;-81
2021/11/09 08:42:44;;;;;;;;;;;12.40;82.00;;;;;;4988175;28;20481;-83
2021/11/09 08:47:48;;;;;;;1.50;1.00;;;12.50;81.90;;;;;;4985213;28;20137;-80
2021/11/09 08:50:15;;;;;;;1.17;0.70;;;12.50;81.90;;;;;;4987970;28;20046;-81
2021/11/09 08:52:42;;;;;;;1.95;0.80;;;12.60;82.00;;;;;;4987822;28;20651;-80
2021/11/09 09:05:50;;;;;;;0.95;0.80;;;12.90;82.10;;;;;;4984961;28;20038;-81
2021/11/09 09:08:16;;;;;;;1.65;1.02;;;12.90;82.00;;;;;;4982756;28;20508;-80
2021/11/09 09:10:42;;;;;;;0.88;0.88;;;12.90;81.90;;;;;;5002171;28;20034;-81
2021/11/09 09:13:08;;;;;;;1.40;0.90;;;13.00;81.90;;;;;;5001900;28;20034;-81
2021/11/09 09:15:37;;;;;;;1.02;0.93;;;13.10;82.00;;;;;;4992528;28;20026;-79
2021/11/09 09:18:04;;;;;;;1.27;0.77;;;13.20;82.10;;;;;;5001965;28;20457;-82
2021/11/09 09:21:14;;;;;;;1.20;0.90;;;13.20;82.00;;;;;;4987093;28;20030;-83
2021/11/09 09:23:28;;;;;;;0.70;0.70;;;13.30;82.00;;;;;;4982713;28;20041;-81
2021/11/09 09:33:40;;;;;;;1.23;0.80;;;13.50;81.80;;;;;;4987978;28;20030;-79
2021/11/09 09:55:41;;;;;;;0.88;0.70;;;13.90;81.70;;;;;;4986520;28;20113;-80
2021/11/09 09:58:11;;;;;;;0.80;0.80;;;14.00;81.70;;;;;;4986545;28;20520;-84
2021/11/09 10:00:40;;;;;;;1.65;0.73;;;14.10;81.70;;;;;;4987214;28;20502;-80
2021/11/09 10:03:06;;;;;;;1.23;0.95;;;14.20;81.70;;;;;;4987457;28;20082;-80
2021/11/09 10:05:35;;;;;;;1.10;0.80;;;14.30;81.80;;;;;;4977746;28;20108;-78
2021/11/09 10:08:10;;;;;;;1.40;0.82;;;14.30;81.60;;;;;;4973356;28;20065;-80
2021/11/09 10:10:36;;;;;;;1.02;0.70;;;14.30;81.40;;;;;;5002306;28;20037;-78
2021/11/09 10:13:04;;;;;;;0.85;0.82;;;14.40;81.50;;;;;;4987108;28;20030;-80
2021/11/09 10:15:33;;;;;;;1.33;0.70;;;14.40;81.40;;;;;;5001867;28;20481;-78
2021/11/09 10:18:06;;;;;;;0.90;0.70;;;14.50;81.50;;;;;;4986602;28;20437;-80
2021/11/09 10:20:46;;;;;;;1.00;0.80;;;14.50;81.30;;;;;;4986819;28;20057;-79
2021/11/09 10:23:19;;;;;;;0.68;0.68;;;14.60;81.40;;;;;;4985300;28;20034;-80
2021/11/09 10:25:47;;;;;;;;;;;14.60;81.20;;;;;;4986098;28;20113;-79
2021/11/09 10:28:26;;;;;;;1.40;0.85;;;14.70;81.30;;;;;;4985607;28;19982;-80
2021/11/09 10:31:02;;;;;;;1.85;0.80;;;14.70;81.10;;;;;;4986351;28;20069;-80
2021/11/09 10:33:40;;;;;;;1.17;0.70;;;14.70;81.00;;;;;;4987944;28;20486;-79
2021/11/09 10:36:20;;;;;;;0.82;0.82;;;14.70;81.00;;;;;;4990545;28;20490;-81
2021/11/09 10:38:48;;;;;;;1.58;0.90;;;14.70;81.50;;;;;;4986263;28;20491;-79
2021/11/09 10:41:15;;;;;;;1.02;0.80;;;14.70;80.90;;;;;;4971205;28;20543;-79
2021/11/09 10:43:42;;;;;;;2.65;0.80;;;14.80;81.10;;;;;;4998553;28;20041;-80
2021/11/09 10:46:30;;;;;;;1.48;0.73;;;14.70;80.90;;;;;;4990797;28;20069;-79
2021/11/09 10:48:58;;;;;;;0.88;0.70;;;14.80;81.00;;;;;;4990210;28;20129;-79
2021/11/09 10:51:44;;;;;;;1.85;0.73;;;14.80;80.90;;;;;;4989336;28;20031;-79
2021/11/09 10:54:10;;;;;;;1.77;1.00;;;14.80;80.80;;;;;;4990383;28;20278;-79
2021/11/09 10:56:50;;;;;;;0.80;0.75;;;14.80;80.70;;;;;;4990628;28;20034;-79
2021/11/09 11:04:39;;;;;;;0.80;0.80;;;14.80;80.60;;;;;;4990278;28;20034;-79
2021/11/09 11:07:09;;;;;;;1.10;0.80;;;14.80;80.60;;;;;;4988554;28;20437;-79
2021/11/09 11:09:36;;;;;;;1.60;0.82;;;14.90;80.70;;;;;;4989952;28;20069;-79
2021/11/09 11:12:09;;;;;;;1.17;0.80;;;14.90;80.80;;;;;;4989629;28;20030;-79
2021/11/09 11:14:45;;;;;;;1.55;0.75;;;14.80;80.60;;;;;;4970497;28;20434;-79
2021/11/09 11:17:18;;;;;;;0.88;0.65;;;14.90;80.70;;;;;;4970873;28;20423;-79
2021/11/09 11:19:50;;;;;;;0.80;0.80;;;14.90;80.60;;;;;;4988379;28;20026;-78
2021/11/09 11:22:25;;;;;;;2.13;0.80;;;14.90;80.50;;;;;;4989727;28;20766;-80
2021/11/09 11:24:56;;;;;;;1.00;0.90;;;15.00;80.70;;;;;;4988667;28;20033;-79
2021/11/09 11:27:26;;;;;;;3.45;1.00;;;15.00;80.60;;;;;;4990138;28;20540;-79
2021/11/09 11:29:53;;;;;;;1.98;1.10;;;15.10;80.70;;;;;;4988388;28;20133;-79
2021/11/09 11:32:22;;;;;;;0.90;0.70;;;15.10;80.70;;;;;;4987942;28;20044;-79
2021/11/09 11:34:48;;;;;;;1.00;0.90;;;15.20;80.70;;;;;;4990265;28;20027;-78
2021/11/09 11:37:18;;;;;;;1.65;0.85;;;15.30;80.80;;;;;;4990057;28;20042;-78
2021/11/09 11:39:47;;;;;;;1.30;0.80;;;15.40;80.70;;;;;;4989293;28;20351;-77
2021/11/09 11:42:17;;;;;;;0.90;0.90;;;15.50;80.70;;;;;;4972159;28;20038;-79
2021/11/09 11:44:53;;;;;;;2.08;1.00;;;15.60;81.20;;;;;;4988778;28;20122;-80
2021/11/09 11:47:23;;;;;;;1.88;0.95;;;15.70;80.70;;;;;;4989526;28;20096;-83
2021/11/09 11:49:52;;;;;;;1.85;0.68;;;15.80;80.70;;;;;;4989568;28;20081;-80
2021/11/09 11:52:50;;;;;;;2.55;1.13;;;15.90;80.70;;;;;;4989331;28;20406;-80
2021/11/09 11:55:27;;;;;;;2.67;1.55;;;16.00;80.70;;;;;;4998715;28;20066;-81
2021/11/09 11:58:10;;;;;;;1.98;1.08;;;16.10;80.70;;;;;;4989082;28;20130;-80
2021/11/09 12:00:42;;;;;;;1.05;0.70;;;16.20;80.70;;;;;;4988877;28;20042;-82
2021/11/09 12:03:17;;;;;;;1.65;0.80;;;16.30;80.70;;;;;;4989197;28;20026;-80
2021/11/09 12:05:48;;;;;;;1.55;0.77;;;16.40;80.70;;;;;;4989376;28;20490;-79
2021/11/09 12:08:35;;;;;;;1.73;1.02;;;16.40;80.50;;;;;;4989370;28;20033;-80
2021/11/09 12:11:02;;;;;;;1.45;0.70;;;16.50;80.50;;;;;;4989143;28;20030;-80
2021/11/09 12:13:28;;;;;;;4.75;1.98;;;16.60;80.60;;;;;;4988700;28;20089;-82
2021/11/09 12:15:57;;;;;;;3.90;1.60;;;16.60;80.60;;;;;;4988946;28;20038;-83
2021/11/09 12:18:36;;;;;;;4.82;1.65;;;16.70;81.00;;;;;;4987544;28;20125;-83
2021/11/09 12:21:08;;;;;;;3.33;1.50;;;16.80;81.20;;;;;;4988906;28;20038;-87
2021/11/09 12:23:36;;;;;;;5.40;1.83;;;16.90;81.30;;;;;;4989260;28;20036;-84
2021/11/09 12:26:03;;;;;;;4.68;1.85;;;17.00;81.40;;;;;;4987329;28;20045;-83
2021/11/09 12:28:39;;;;;;;2.75;1.67;;;17.10;81.40;;;;;;4988854;28;20034;-87
2021/11/09 12:31:16;;;;;;;3.70;1.50;;;17.10;81.20;;;;;;4989015;28;20031;-83
2021/11/09 12:33:51;;;;;;;2.40;1.20;;;17.20;81.30;;;;;;4989553;28;20058;-81
2021/11/09 12:36:22;;;;;;;2.95;1.00;;;17.30;81.30;;;;;;4989141;28;20057;-84
2021/11/09 12:38:54;;;;;;;2.05;1.25;;;17.30;81.20;;;;;;4988152;28;20049;-83
2021/11/09 12:41:29;;;;;;;1.80;1.00;;;17.30;81.10;;;;;;5003780;28;20034;-82
2021/11/09 12:44:03;;;;;;;5.45;1.98;;;17.40;81.20;;;;;;4988236;28;20299;-81
2021/11/09 12:46:34;;;;;;;5.15;2.50;;;17.50;81.10;;;;;;4988349;28;20041;-87
2021/11/09 12:49:05;;;;;;;4.85;1.27;;;17.50;81.00;;;;;;4987842;28;20057;-82
2021/11/09 12:51:36;;;;;;;3.22;1.80;;;17.50;80.90;;;;;;4988489;28;20518;-80
2021/11/09 12:54:11;;;;;;;3.42;1.70;;;17.60;80.90;;;;;;4987753;28;20031;-79
2021/11/09 12:56:37;;;;;;;1.92;1.00;;;17.60;80.70;;;;;;4987718;28;20045;-81
2021/11/09 13:09:54;;;;;;;1.55;1.00;;;17.80;80.40;;;;;;4988267;28;20034;-79
2021/11/09 13:12:23;;;;;;;2.63;1.00;;;17.90;80.50;;;;;;4985798;28;20438;-79
2021/11/09 13:14:58;;;;;;;2.47;1.30;;;17.90;80.30;;;;;;4987995;28;20627;-86
2021/11/09 13:17:34;;;;;;;1.33;0.93;;;18.00;80.30;;;;;;4986554;28;20042;-82
2021/11/09 13:20:06;;;;;;;1.48;1.10;;;18.00;80.20;;;;;;4987162;28;20038;-79
2021/11/09 13:22:32;;;;;;;2.10;1.15;;;18.00;80.10;;;;;;5003283;28;20034;-80
2021/11/09 13:25:07;;;;;;;1.95;1.13;;;18.10;80.10;;;;;;4986963;28;20038;-78
2021/11/09 13:27:43;;;;;;;1.20;0.80;;;18.10;80.00;;;;;;5002788;28;20042;-79
2021/11/09 13:30:14;;;;;;;3.65;1.33;;;18.10;79.80;;;;;;4987672;28;20500;-79
2021/11/09 13:32:42;;;;;;;2.75;1.15;;;18.10;79.80;;;;;;4987364;28;20031;-83
2021/11/09 13:35:21;;;;;;;1.67;0.88;;;18.20;79.90;;;;;;4985982;28;20744;-81
2021/11/09 13:37:48;;;;;;;1.85;0.98;;;18.20;79.70;;;;;;4987445;28;20048;-79
2021/11/09 13:40:16;;;;;;;3.42;0.90;;;18.20;79.60;;;;;;4986686;28;20491;-79
2021/11/09 13:42:42;;;;;;;4.97;1.20;;;18.20;79.60;;;;;;4986839;28;20034;-79
2021/11/09 13:45:14;;;;;;;1.88;0.73;;;18.30;79.70;;;;;;5002583;28;20363;-80
2021/11/09 13:47:40;;;;;;;1.60;0.90;;;18.30;79.50;;;;;;4987737;28;20074;-79
2021/11/09 13:50:10;;;;;;;1.30;0.80;;;18.30;79.50;;;;;;5002165;28;20113;-81
2021/11/09 13:52:48;;;;;;;0.98;0.73;;;18.30;79.30;;;;;;4986714;28;20425;-79
2021/11/09 13:55:17;;;;;;;1.38;0.63;;;18.40;79.40;;;;;;4987442;28;20124;-82
2021/11/09 13:57:44;;;;;;;1.63;1.27;;;18.40;79.40;;;;;;4986930;28;20046;-81
2021/11/09 14:00:31;;;;;;;1.40;0.75;;;18.40;79.30;;;;;;4986567;28;20472;-81
2021/11/09 14:11:42;;;;;;;1.60;0.70;;;18.40;79.00;;;;;;4987005;28;20252;-81
2021/11/09 14:16:55;;;;;;;0.88;0.70;;;18.40;79.00;;;;;;4985587;28;20053;-85
2021/11/09 14:19:29;;;;;;;0.98;0.70;;;18.40;78.90;;;;;;4986696;28;20181;-87
2021/11/09 14:21:57;;;;;;;1.45;0.73;;;18.40;79.30;;;;;;4988431;28;20035;-84
2021/11/09 14:24:27;;;;;;;1.85;1.10;;;18.40;78.70;;;;;;4988082;28;20030;-86
2021/11/09 14:27:25;;;;;;;0.68;0.60;;;18.40;78.70;;;;;;4970883;28;20038;-83
2021/11/09 14:29:57;;;;;;;0.73;0.73;;;18.50;78.80;;;;;;4986366;28;20039;-85
2021/11/09 14:32:26;;;;;;;2.58;0.70;;;18.50;78.70;;;;;;4985186;28;20034;-88
2021/11/09 14:35:03;;;;;;;7.50;2.10;;;18.40;78.50;;;;;;4986381;28;20178;-83
2021/11/09 14:37:34;;;;;;;1.27;0.85;;;18.50;78.50;;;;;;5002101;28;20038;-86
2021/11/09 14:40:11;;;;;;;2.67;0.93;;;18.40;78.40;;;;;;4987968;28;20437;-84
2021/11/09 14:45:32;;;;;;;1.23;0.80;;;18.40;78.30;;;;;;4975179;28;20026;-86
2021/11/09 14:48:15;;;;;;;1.25;0.75;;;18.40;78.30;;;;;;4987156;28;20045;-88
2021/11/09 14:50:59;;;;;;;1.17;1.02;;;18.40;78.20;;;;;;4986385;28;20047;-90
2021/11/09 14:53:39;;;;;;;9.00;1.98;;;18.40;78.20;;;;;;4987103;28;20069;-87
2021/11/09 14:56:13;;;;;;;1.60;1.00;;;18.30;78.00;;;;;;4988431;28;20086;-87
2021/11/09 14:58:41;;;;;;;1.10;0.75;;;18.30;78.10;;;;;;4987656;28;20858;-84
2021/11/09 15:01:28;;;;;;;1.75;1.25;;;18.30;78.10;;;;;;4969873;28;20030;-85
2021/11/09 15:04:11;;;;;;;0.77;0.70;;;18.30;78.10;;;;;;4986177;28;20038;-81
2021/11/09 15:25:38;;;;;;;1.92;0.88;;;17.90;77.70;;;;;;4991807;28;20553;-88
2021/11/09 15:38:25;;;;;;;1.70;0.93;;;17.70;77.90;;;;;;4988406;28;20207;-86
2021/11/09 15:40:54;;;;;;;2.13;0.88;;;17.60;77.80;;;;;;4990090;28;20124;-84
2021/11/09 15:43:20;;;;;;;1.48;0.80;;;17.60;77.80;;;;;;4988279;28;20386;-83
2021/11/09 15:45:48;;;;;;;4.38;1.67;;;17.50;78.30;;;;;;4989974;28;20037;-84
2021/11/09 15:48:14;;;;;;;0.90;0.80;;;17.50;77.80;;;;;;5003245;28;20756;-86
2021/11/09 15:50:40;;;;;;;0.80;0.68;;;17.50;77.90;;;;;;4988865;28;20078;-88
2021/11/09 15:53:06;;;;;;;3.20;1.05;;;17.50;77.90;;;;;;5004513;28;20088;-85
2021/11/09 15:55:32;;;;;;;1.95;0.70;;;17.50;78.00;;;;;;4989617;28;20091;-86
2021/11/09 15:58:00;;;;;;;1.63;1.10;;;17.40;77.80;;;;;;4972751;28;20192;-85
2021/11/09 16:00:27;;;;;;;2.28;1.10;;;17.40;77.90;;;;;;4991161;28;20030;-85
2021/11/09 16:02:53;;;;;;;1.40;0.80;;;17.30;77.80;;;;;;4987599;28;20117;-81
2021/11/09 16:05:19;;;;;;;1.17;0.77;;;17.30;77.80;;;;;;4988611;28;20035;-88
2021/11/09 16:07:46;;;;;;;1.58;0.88;;;17.30;77.90;;;;;;5003907;28;20026;-85